Kezdőlap
METAR-TAF:

METAR-TAF

Repülőterek :

Chatham Municipal Airport

Chatham, Massachusetts, Amerikai Egyesült Államok

földrajzi szélesség: 41-41-15N, földrajzi hosszúság: 069-59-36W, magasság: 20 m

Jelenlegi meteorológiai megfigyelések

A jelentés 37 perccel ezelõtt készült, 17:52 UTC
Délnyugati szél 9 kt széllökések: 16 kt
Hőmérséklet 10°C
Páratartalom 37%
Légköri nyomás 1020 hPa
Látótávolság: 16.1 km
Derült ég

METAR: KCQX 231752Z AUTO 23009G16KT 10SM CLR 10/M04 A3013 RMK AO2 SLP206 T01001039 10106 21011 58019

Idő: 13:29 (18:29 UTC)


TAF: hiányzik

Meteorológiai megfigyelések és előrejelzések több, mint 4000 repülőtéren (METAR és TAF jelentéseket).

A térképen piros és sárga pontok jelzik az elérhető meteorológiai állomásokat.

Mozgassa az egeret a pont fölött, hogy megjelenjen az állomás neve.

Azután kattintson az időjárási megfigyelések és előrejelzések megtekintéséhez.

A térkép megváltoztatása: kattintson a fekete keresztel jelölt zöld gombra ráközelítéshez, a vonallal jelölt zöld gombra távolításhoz, vagy a zöld nyilakra a szomszédos térképek eléréséhez.


METAR-TAF: